Terminal Aerodrome Forecast
Issued by NWS Los Angeles, CA

Home | Current Version | Previous Version | Text Only | Print | Product List | Glossary On
Versions: 1 2 3 4 5 6 7 8 9 10 11 12 13 14 15 16 17 18 19 20 21 22 23 24
000
FTUS46 KLOX 292345
TAFSMX
TAF
KSMX 292345Z 3000/3024 30010KT P6SM SKC
     FM300300 32007KT 6SM BR BKN008
     FM300600 VRB03KT 3SM BR OVC004
     FM301700 VRB03KT P6SM SCT008 BKN200
     FM301900 31010KT P6SM VCTS SCT010 BKN080CB=

USA.gov is the U.S. government's official web portal to all federal, state and local government web resources and services.